createdAt,value
2023-04-08T00:00:25.221Z,7.39
2023-04-08T00:05:45.921Z,7.34
2023-04-08T00:11:06.371Z,7.35
2023-04-08T00:16:26.793Z,7.36
2023-04-08T00:21:48.109Z,7.36
2023-04-08T00:27:08.411Z,7.34
2023-04-08T00:32:29.371Z,7.34
2023-04-08T00:37:50.086Z,7.32
2023-04-08T00:43:10.612Z,7.36
2023-04-08T00:48:32.436Z,7.37
2023-04-08T00:53:53.171Z,7.42
2023-04-08T00:59:14.357Z,7.42
2023-04-08T01:04:37.432Z,7.38
2023-04-08T01:10:03.982Z,7.36
2023-04-08T01:15:27.874Z,7.33
2023-04-08T01:20:50.472Z,7.34
2023-04-08T01:26:21.410Z,7.32
2023-04-08T01:31:43.733Z,7.39
2023-04-08T01:37:06.638Z,7.38
2023-04-08T01:42:29.687Z,7.42
2023-04-08T01:47:53.226Z,7.40
2023-04-08T01:53:14.292Z,7.42
2023-04-08T01:58:41.677Z,7.42
2023-04-08T02:04:03.690Z,7.43
2023-04-08T02:09:25.018Z,7.40
2023-04-08T02:14:46.206Z,7.46
2023-04-08T02:20:10.986Z,7.47
2023-04-08T02:25:36.011Z,7.47
2023-04-08T02:30:58.975Z,7.43
2023-04-08T02:36:22.287Z,7.43
2023-04-08T02:41:42.649Z,7.46
2023-04-08T02:47:03.447Z,7.44
2023-04-08T02:52:23.741Z,7.42
2023-04-08T02:57:44.594Z,7.39
2023-04-08T03:03:05.515Z,7.37
2023-04-08T03:08:26.386Z,7.41
2023-04-08T03:13:47.043Z,7.40
2023-04-08T03:19:07.563Z,7.40
2023-04-08T03:24:27.871Z,7.39
2023-04-08T03:29:48.554Z,7.44
2023-04-08T03:35:09.402Z,7.46
2023-04-08T03:40:30.219Z,7.46
2023-04-08T03:45:51.409Z,7.41
2023-04-08T03:51:12.005Z,7.44
2023-04-08T03:56:32.369Z,7.45
2023-04-08T04:01:53.672Z,7.47
2023-04-08T04:07:14.526Z,7.51
2023-04-08T04:12:34.774Z,7.52
2023-04-08T04:17:55.183Z,7.54
2023-04-08T04:23:15.467Z,7.53
2023-04-08T04:28:36.201Z,7.59
2023-04-08T04:33:56.642Z,7.64
2023-04-08T04:39:17.107Z,7.61
2023-04-08T04:44:37.577Z,7.63
2023-04-08T04:49:58.367Z,7.62
2023-04-08T04:55:18.766Z,7.63
2023-04-08T05:00:39.314Z,7.62
2023-04-08T05:05:59.701Z,7.66
2023-04-08T05:11:21.740Z,7.66
2023-04-08T05:16:41.916Z,7.71
2023-04-08T05:22:02.352Z,7.71
2023-04-08T05:27:22.810Z,7.76
2023-04-08T05:32:43.638Z,7.75
2023-04-08T05:38:04.201Z,7.77
2023-04-08T05:43:24.994Z,7.83
2023-04-08T05:48:45.449Z,7.84
2023-04-08T05:54:06.057Z,7.84
2023-04-08T05:59:26.275Z,7.86
2023-04-08T06:04:46.907Z,7.95
2023-04-08T06:10:08.424Z,8.14
2023-04-08T06:15:29.150Z,8.46
2023-04-08T06:20:50.530Z,8.55
2023-04-08T06:26:11.237Z,8.52
2023-04-08T06:31:31.940Z,8.38
2023-04-08T06:36:52.632Z,8.35
2023-04-08T06:42:13.250Z,8.31
2023-04-08T06:48:01.445Z,8.40
2023-04-08T06:53:26.172Z,8.55
2023-04-08T06:58:47.255Z,8.76
2023-04-08T07:04:07.979Z,8.77
2023-04-08T07:09:28.558Z,8.86
2023-04-08T07:14:48.897Z,9.01
2023-04-08T07:20:09.684Z,9.09
2023-04-08T07:25:30.502Z,9.25
2023-04-08T07:30:50.934Z,9.34
2023-04-08T07:36:13.150Z,9.54
2023-04-08T07:41:34.220Z,9.63
2023-04-08T07:46:54.502Z,9.85
2023-04-08T07:52:15.683Z,10.02
2023-04-08T07:57:35.915Z,10.13
2023-04-08T08:02:56.516Z,10.23
2023-04-08T08:08:17.001Z,10.36
2023-04-08T08:13:37.667Z,10.43
2023-04-08T08:18:58.431Z,10.69
2023-04-08T08:24:19.270Z,11.37
2023-04-08T08:29:41.180Z,11.94
2023-04-08T08:35:02.257Z,12.11
2023-04-08T08:40:22.838Z,12.17
2023-04-08T08:45:43.438Z,12.33
2023-04-08T08:51:11.303Z,12.32
2023-04-08T08:56:33.938Z,12.27
2023-04-08T09:01:54.588Z,12.41
2023-04-08T09:07:15.320Z,12.38
2023-04-08T09:12:53.524Z,12.86
2023-04-08T09:18:22.890Z,13.66
2023-04-08T09:23:52.561Z,14.40
2023-04-08T09:29:25.612Z,14.55
2023-04-08T09:34:46.920Z,14.27
2023-04-08T09:40:08.490Z,14.26
2023-04-08T09:45:29.778Z,14.28
2023-04-08T09:55:27.602Z,14.17
2023-04-08T10:00:51.391Z,13.93
2023-04-08T10:06:12.444Z,13.78
2023-04-08T10:11:34.824Z,13.47
2023-04-08T10:17:32.066Z,13.34
2023-04-08T10:22:52.413Z,13.37
2023-04-08T10:28:12.960Z,13.30
2023-04-08T10:33:39.337Z,13.30
2023-04-08T10:39:01.226Z,13.28
2023-04-08T10:44:24.652Z,13.24
2023-04-08T10:49:45.632Z,13.34
2023-04-08T10:55:07.399Z,13.66
2023-04-08T11:00:38.492Z,13.83
2023-04-08T11:05:59.938Z,14.59
2023-04-08T11:11:21.370Z,17.58
2023-04-08T11:16:42.557Z,20.25
2023-04-08T11:22:03.013Z,24.29
2023-04-08T11:27:25.792Z,24.73
2023-04-08T11:32:46.545Z,24.86
2023-04-08T11:38:09.066Z,22.79
2023-04-08T11:43:30.450Z,21.73
2023-04-08T11:49:01.203Z,21.85
2023-04-08T11:54:32.228Z,21.95
2023-04-08T11:59:52.843Z,21.51
2023-04-08T12:05:14.419Z,23.52
2023-04-08T12:10:35.396Z,26.08
2023-04-08T12:15:56.594Z,24.99
2023-04-08T12:21:16.985Z,30.62
2023-04-08T12:26:37.525Z,39.91
2023-04-08T12:31:58.416Z,45.14
2023-04-08T12:37:20.678Z,47.57
2023-04-08T12:42:41.021Z,49.87
2023-04-08T12:48:02.192Z,49.75
2023-04-08T12:53:22.937Z,49.52
2023-04-08T12:58:43.655Z,50.19
2023-04-08T13:04:04.187Z,51.20
2023-04-08T13:09:24.580Z,51.68
2023-04-08T13:14:45.442Z,53.10
2023-04-08T13:20:06.967Z,53.32
2023-04-08T13:25:27.486Z,53.48
2023-04-08T13:30:48.204Z,52.93
2023-04-08T13:36:08.849Z,51.36
2023-04-08T13:41:29.996Z,51.03
2023-04-08T13:46:50.783Z,47.52
2023-04-08T13:52:11.538Z,46.31
2023-04-08T13:57:32.212Z,50.46
2023-04-08T14:02:53.615Z,52.71
2023-04-08T14:08:14.295Z,52.46
2023-04-08T14:13:35.094Z,48.28
2023-04-08T14:18:55.737Z,39.57
2023-04-08T14:24:16.274Z,36.55
2023-04-08T14:29:36.693Z,34.56
2023-04-08T14:34:57.053Z,34.78
2023-04-08T14:40:17.497Z,35.20
2023-04-08T14:45:38.898Z,35.10
2023-04-08T14:50:59.976Z,35.01
2023-04-08T14:56:20.572Z,34.92
2023-04-08T15:01:41.447Z,35.28
2023-04-08T15:07:03.712Z,35.06
2023-04-08T15:12:24.517Z,35.11
2023-04-08T15:17:45.053Z,35.17
2023-04-08T15:23:06.127Z,34.85
2023-04-08T15:28:27.303Z,33.95
2023-04-08T15:33:48.906Z,33.37
2023-04-08T15:39:09.564Z,32.48
2023-04-08T15:44:32.177Z,31.27
2023-04-08T15:49:53.373Z,29.10
2023-04-08T15:55:13.922Z,27.13
2023-04-08T16:00:34.923Z,25.60
2023-04-08T16:05:55.432Z,24.66
2023-04-08T16:11:15.731Z,24.03
2023-04-08T16:16:38.287Z,23.30
2023-04-08T16:21:58.800Z,22.70
2023-04-08T16:27:19.465Z,21.87
2023-04-08T16:32:40.365Z,20.88
2023-04-08T16:38:01.218Z,20.22
2023-04-08T16:43:21.526Z,19.70
2023-04-08T16:48:43.813Z,19.38
2023-04-08T16:54:04.515Z,18.93
2023-04-08T16:59:24.943Z,18.67
2023-04-08T17:04:49.942Z,18.29
2023-04-08T17:10:10.463Z,18.02
2023-04-08T17:15:31.613Z,17.76
2023-04-08T17:20:52.174Z,17.52
2023-04-08T17:26:12.851Z,17.18
2023-04-08T17:31:33.261Z,16.85
2023-04-08T17:36:53.630Z,16.66
2023-04-08T17:42:14.506Z,16.38
2023-04-08T17:47:35.488Z,16.04
2023-04-08T17:52:56.795Z,15.69
2023-04-08T17:58:17.403Z,15.46
2023-04-08T18:03:38.613Z,15.16
2023-04-08T18:08:59.383Z,14.85
2023-04-08T18:14:19.982Z,14.61
2023-04-08T18:19:40.527Z,14.42
2023-04-08T18:25:01.269Z,14.30
2023-04-08T18:30:21.558Z,14.22
2023-04-08T18:35:43.562Z,14.22
2023-04-08T18:41:04.445Z,13.98
2023-04-08T18:46:25.160Z,13.87
2023-04-08T18:51:59.166Z,13.65
2023-04-08T18:57:23.102Z,13.47
2023-04-08T19:02:44.004Z,13.34
2023-04-08T19:08:05.703Z,13.15
2023-04-08T19:13:26.505Z,12.95
2023-04-08T19:18:47.161Z,12.68
2023-04-08T19:24:09.186Z,12.58
2023-04-08T19:29:31.240Z,12.45
2023-04-08T19:34:51.732Z,12.33
2023-04-08T19:40:12.266Z,12.20
2023-04-08T19:45:33.884Z,11.99
2023-04-08T19:50:54.960Z,11.71
2023-04-08T19:56:16.242Z,11.47
2023-04-08T20:01:38.174Z,11.56
2023-04-08T20:07:01.249Z,11.53
2023-04-08T20:12:21.613Z,11.45
2023-04-08T20:17:43.037Z,11.31
2023-04-08T20:23:03.428Z,11.28
2023-04-08T20:28:25.626Z,11.17
2023-04-08T20:33:46.344Z,11.05
2023-04-08T20:39:10.457Z,11.01
2023-04-08T20:44:31.961Z,10.92
2023-04-08T20:49:53.067Z,10.86
2023-04-08T20:55:14.328Z,10.81
2023-04-08T21:00:35.247Z,10.50
2023-04-08T21:05:56.220Z,10.58
2023-04-08T21:11:16.854Z,10.39
2023-04-08T21:16:37.629Z,10.35
2023-04-08T21:21:58.428Z,10.26
2023-04-08T21:27:19.053Z,10.15
2023-04-08T21:32:39.790Z,10.05
2023-04-08T21:38:00.686Z,9.94
2023-04-08T21:43:21.847Z,10.01
2023-04-08T21:48:42.597Z,9.96
2023-04-08T21:54:03.472Z,9.78
2023-04-08T21:59:24.608Z,9.66
2023-04-08T22:04:45.619Z,9.64
2023-04-08T22:10:07.373Z,9.67
2023-04-08T22:15:28.208Z,9.65
2023-04-08T22:20:48.534Z,9.62
2023-04-08T22:26:09.367Z,9.59
2023-04-08T22:31:30.944Z,9.52
2023-04-08T22:36:51.804Z,9.44
2023-04-08T22:42:12.261Z,9.35
2023-04-08T22:47:32.879Z,9.32
2023-04-08T22:52:53.903Z,9.25
2023-04-08T22:58:14.551Z,9.17
2023-04-08T23:03:35.364Z,9.04
2023-04-08T23:08:56.057Z,8.99
2023-04-08T23:14:16.672Z,8.96
2023-04-08T23:19:37.307Z,8.92
2023-04-08T23:24:57.918Z,8.91
2023-04-08T23:30:18.476Z,8.86
2023-04-08T23:35:39.552Z,8.79
2023-04-08T23:41:00.036Z,8.73
2023-04-08T23:46:20.779Z,8.65
2023-04-08T23:51:41.141Z,8.60
2023-04-08T23:57:01.949Z,8.56
